sensor_id;sensor_type;location;lat;lon;timestamp;P1;durP1;ratioP1;P2;durP2;ratioP2
30299;SDS011;17110;52.602;12.998;2023-08-01T00:00:04;8.98;;;6.50;;
30299;SDS011;17110;52.602;12.998;2023-08-01T00:02:36;7.55;;;6.30;;
30299;SDS011;17110;52.602;12.998;2023-08-01T00:05:03;10.80;;;6.28;;
30299;SDS011;17110;52.602;12.998;2023-08-01T00:07:29;10.68;;;6.35;;
30299;SDS011;17110;52.602;12.998;2023-08-01T00:09:56;11.20;;;6.05;;
30299;SDS011;17110;52.602;12.998;2023-08-01T00:12:23;10.38;;;5.85;;
30299;SDS011;17110;52.602;12.998;2023-08-01T00:14:49;9.15;;;5.32;;
30299;SDS011;17110;52.602;12.998;2023-08-01T00:17:15;10.85;;;5.53;;
30299;SDS011;17110;52.602;12.998;2023-08-01T00:19:40;9.30;;;5.32;;
30299;SDS011;17110;52.602;12.998;2023-08-01T00:22:06;10.30;;;5.70;;
30299;SDS011;17110;52.602;12.998;2023-08-01T00:24:31;9.57;;;6.47;;
30299;SDS011;17110;52.602;12.998;2023-08-01T00:26:58;9.57;;;5.90;;
30299;SDS011;17110;52.602;12.998;2023-08-01T00:29:24;10.30;;;5.63;;
30299;SDS011;17110;52.602;12.998;2023-08-01T00:31:50;8.40;;;5.18;;
30299;SDS011;17110;52.602;12.998;2023-08-01T00:34:15;7.70;;;4.45;;
30299;SDS011;17110;52.602;12.998;2023-08-01T00:36:41;8.32;;;5.22;;
30299;SDS011;17110;52.602;12.998;2023-08-01T00:39:06;13.02;;;5.47;;
30299;SDS011;17110;52.602;12.998;2023-08-01T00:41:32;8.77;;;4.80;;
30299;SDS011;17110;52.602;12.998;2023-08-01T00:43:59;6.38;;;5.45;;
30299;SDS011;17110;52.602;12.998;2023-08-01T00:46:25;10.75;;;5.60;;
30299;SDS011;17110;52.602;12.998;2023-08-01T00:48:50;8.80;;;4.82;;
30299;SDS011;17110;52.602;12.998;2023-08-01T00:51:18;7.65;;;4.95;;
30299;SDS011;17110;52.602;12.998;2023-08-01T00:53:44;6.88;;;4.85;;
30299;SDS011;17110;52.602;12.998;2023-08-01T00:56:11;8.40;;;4.95;;
30299;SDS011;17110;52.602;12.998;2023-08-01T00:58:36;8.15;;;4.82;;
30299;SDS011;17110;52.602;12.998;2023-08-01T01:01:03;6.22;;;4.28;;
30299;SDS011;17110;52.602;12.998;2023-08-01T01:03:29;7.32;;;4.60;;
30299;SDS011;17110;52.602;12.998;2023-08-01T01:05:56;7.10;;;4.55;;
30299;SDS011;17110;52.602;12.998;2023-08-01T01:08:31;5.05;;;4.00;;
30299;SDS011;17110;52.602;12.998;2023-08-01T01:10:56;6.28;;;3.92;;
30299;SDS011;17110;52.602;12.998;2023-08-01T01:13:22;5.85;;;4.15;;
30299;SDS011;17110;52.602;12.998;2023-08-01T01:15:48;5.60;;;3.80;;
30299;SDS011;17110;52.602;12.998;2023-08-01T01:18:15;6.63;;;4.15;;
30299;SDS011;17110;52.602;12.998;2023-08-01T01:20:41;6.97;;;4.00;;
30299;SDS011;17110;52.602;12.998;2023-08-01T01:23:08;6.45;;;4.20;;
30299;SDS011;17110;52.602;12.998;2023-08-01T01:25:36;6.38;;;4.07;;
30299;SDS011;17110;52.602;12.998;2023-08-01T01:28:03;5.20;;;3.95;;
30299;SDS011;17110;52.602;12.998;2023-08-01T01:30:29;5.80;;;3.90;;
30299;SDS011;17110;52.602;12.998;2023-08-01T01:32:55;5.07;;;3.70;;
30299;SDS011;17110;52.602;12.998;2023-08-01T01:35:22;7.32;;;4.32;;
30299;SDS011;17110;52.602;12.998;2023-08-01T01:37:50;5.82;;;4.38;;
30299;SDS011;17110;52.602;12.998;2023-08-01T01:40:16;7.90;;;4.97;;
30299;SDS011;17110;52.602;12.998;2023-08-01T01:42:41;6.20;;;4.13;;
30299;SDS011;17110;52.602;12.998;2023-08-01T01:45:07;5.72;;;4.03;;
30299;SDS011;17110;52.602;12.998;2023-08-01T01:47:33;6.43;;;4.10;;
30299;SDS011;17110;52.602;12.998;2023-08-01T01:49:59;7.18;;;4.88;;
30299;SDS011;17110;52.602;12.998;2023-08-01T01:52:24;8.75;;;4.70;;
30299;SDS011;17110;52.602;12.998;2023-08-01T01:54:51;9.27;;;5.43;;
30299;SDS011;17110;52.602;12.998;2023-08-01T01:57:17;8.25;;;5.07;;
30299;SDS011;17110;52.602;12.998;2023-08-01T01:59:43;6.85;;;4.72;;
30299;SDS011;17110;52.602;12.998;2023-08-01T02:02:08;7.20;;;4.82;;
30299;SDS011;17110;52.602;12.998;2023-08-01T02:04:34;6.25;;;4.65;;
30299;SDS011;17110;52.602;12.998;2023-08-01T02:07:00;6.22;;;4.82;;
30299;SDS011;17110;52.602;12.998;2023-08-01T02:09:26;7.00;;;4.80;;
30299;SDS011;17110;52.602;12.998;2023-08-01T02:11:53;8.70;;;4.47;;
30299;SDS011;17110;52.602;12.998;2023-08-01T02:14:18;7.45;;;5.05;;
30299;SDS011;17110;52.602;12.998;2023-08-01T02:16:44;8.80;;;4.50;;
30299;SDS011;17110;52.602;12.998;2023-08-01T02:19:10;7.22;;;4.35;;
30299;SDS011;17110;52.602;12.998;2023-08-01T02:21:35;6.35;;;5.45;;
30299;SDS011;17110;52.602;12.998;2023-08-01T02:24:01;6.60;;;4.55;;
30299;SDS011;17110;52.602;12.998;2023-08-01T02:26:27;5.43;;;3.97;;
30299;SDS011;17110;52.602;12.998;2023-08-01T02:28:55;6.15;;;4.95;;
30299;SDS011;17110;52.602;12.998;2023-08-01T02:31:21;5.68;;;4.30;;
30299;SDS011;17110;52.602;12.998;2023-08-01T02:33:46;7.65;;;4.97;;
30299;SDS011;17110;52.602;12.998;2023-08-01T02:36:12;5.75;;;4.72;;
30299;SDS011;17110;52.602;12.998;2023-08-01T02:38:38;5.05;;;4.50;;
30299;SDS011;17110;52.602;12.998;2023-08-01T02:41:03;5.90;;;4.57;;
30299;SDS011;17110;52.602;12.998;2023-08-01T02:43:29;6.55;;;4.30;;
30299;SDS011;17110;52.602;12.998;2023-08-01T02:45:56;5.35;;;4.55;;
30299;SDS011;17110;52.602;12.998;2023-08-01T02:48:21;6.13;;;5.00;;
30299;SDS011;17110;52.602;12.998;2023-08-01T02:50:47;5.15;;;4.07;;
30299;SDS011;17110;52.602;12.998;2023-08-01T02:53:13;4.70;;;3.97;;
30299;SDS011;17110;52.602;12.998;2023-08-01T02:55:38;6.72;;;4.57;;
30299;SDS011;17110;52.602;12.998;2023-08-01T02:58:04;6.38;;;4.93;;
30299;SDS011;17110;52.602;12.998;2023-08-01T03:00:30;5.65;;;4.80;;
30299;SDS011;17110;52.602;12.998;2023-08-01T03:02:56;8.30;;;4.82;;
30299;SDS011;17110;52.602;12.998;2023-08-01T03:05:22;4.78;;;4.18;;
30299;SDS011;17110;52.602;12.998;2023-08-01T03:07:48;6.13;;;4.70;;
30299;SDS011;17110;52.602;12.998;2023-08-01T03:10:14;5.60;;;5.00;;
30299;SDS011;17110;52.602;12.998;2023-08-01T03:12:39;7.85;;;4.32;;
30299;SDS011;17110;52.602;12.998;2023-08-01T03:15:05;5.93;;;4.22;;
30299;SDS011;17110;52.602;12.998;2023-08-01T03:17:32;5.57;;;4.40;;
30299;SDS011;17110;52.602;12.998;2023-08-01T03:19:58;6.30;;;4.85;;
30299;SDS011;17110;52.602;12.998;2023-08-01T03:22:24;5.97;;;4.80;;
30299;SDS011;17110;52.602;12.998;2023-08-01T03:24:50;6.20;;;4.75;;
30299;SDS011;17110;52.602;12.998;2023-08-01T03:27:15;6.97;;;4.20;;
30299;SDS011;17110;52.602;12.998;2023-08-01T03:29:41;5.68;;;4.22;;
30299;SDS011;17110;52.602;12.998;2023-08-01T03:32:07;8.23;;;4.90;;
30299;SDS011;17110;52.602;12.998;2023-08-01T03:34:32;6.20;;;4.68;;
30299;SDS011;17110;52.602;12.998;2023-08-01T03:36:59;6.40;;;4.00;;
30299;SDS011;17110;52.602;12.998;2023-08-01T03:39:25;5.45;;;4.70;;
30299;SDS011;17110;52.602;12.998;2023-08-01T03:41:50;6.28;;;4.80;;
30299;SDS011;17110;52.602;12.998;2023-08-01T03:44:16;5.97;;;4.85;;
30299;SDS011;17110;52.602;12.998;2023-08-01T03:46:42;6.03;;;4.25;;
30299;SDS011;17110;52.602;12.998;2023-08-01T03:49:07;6.22;;;4.82;;
30299;SDS011;17110;52.602;12.998;2023-08-01T03:51:33;7.85;;;4.85;;
30299;SDS011;17110;52.602;12.998;2023-08-01T03:54:00;5.57;;;4.32;;
30299;SDS011;17110;52.602;12.998;2023-08-01T03:56:26;5.22;;;4.32;;
30299;SDS011;17110;52.602;12.998;2023-08-01T03:58:51;6.55;;;4.38;;
30299;SDS011;17110;52.602;12.998;2023-08-01T04:01:17;7.70;;;4.25;;
30299;SDS011;17110;52.602;12.998;2023-08-01T04:03:43;12.35;;;4.57;;
30299;SDS011;17110;52.602;12.998;2023-08-01T04:06:08;7.78;;;4.50;;
30299;SDS011;17110;52.602;12.998;2023-08-01T04:08:34;6.25;;;4.57;;
30299;SDS011;17110;52.602;12.998;2023-08-01T04:11:01;5.93;;;4.43;;
30299;SDS011;17110;52.602;12.998;2023-08-01T04:13:26;7.32;;;4.57;;
30299;SDS011;17110;52.602;12.998;2023-08-01T04:15:52;5.30;;;4.30;;
30299;SDS011;17110;52.602;12.998;2023-08-01T04:18:18;5.13;;;3.50;;
30299;SDS011;17110;52.602;12.998;2023-08-01T04:20:43;4.88;;;4.25;;
30299;SDS011;17110;52.602;12.998;2023-08-01T04:23:09;5.75;;;4.43;;
30299;SDS011;17110;52.602;12.998;2023-08-01T04:25:34;5.47;;;4.07;;
30299;SDS011;17110;52.602;12.998;2023-08-01T04:28:01;7.20;;;4.63;;
30299;SDS011;17110;52.602;12.998;2023-08-01T04:30:27;5.15;;;4.22;;
30299;SDS011;17110;52.602;12.998;2023-08-01T04:32:53;7.25;;;4.75;;
30299;SDS011;17110;52.602;12.998;2023-08-01T04:35:18;7.53;;;4.75;;
30299;SDS011;17110;52.602;12.998;2023-08-01T04:37:44;6.40;;;4.45;;
30299;SDS011;17110;52.602;12.998;2023-08-01T04:40:10;6.60;;;4.47;;
30299;SDS011;17110;52.602;12.998;2023-08-01T04:42:36;5.82;;;3.92;;
30299;SDS011;17110;52.602;12.998;2023-08-01T04:45:03;4.97;;;3.90;;
30299;SDS011;17110;52.602;12.998;2023-08-01T04:47:30;4.55;;;3.65;;
30299;SDS011;17110;52.602;12.998;2023-08-01T04:49:55;7.30;;;3.83;;
30299;SDS011;17110;52.602;12.998;2023-08-01T04:52:21;4.10;;;3.45;;
30299;SDS011;17110;52.602;12.998;2023-08-01T04:54:47;7.38;;;3.85;;
30299;SDS011;17110;52.602;12.998;2023-08-01T04:57:12;3.95;;;3.53;;
30299;SDS011;17110;52.602;12.998;2023-08-01T04:59:38;6.80;;;3.75;;
30299;SDS011;17110;52.602;12.998;2023-08-01T05:02:05;4.60;;;3.65;;
30299;SDS011;17110;52.602;12.998;2023-08-01T05:04:31;4.70;;;3.70;;
30299;SDS011;17110;52.602;12.998;2023-08-01T05:06:56;5.10;;;3.70;;
30299;SDS011;17110;52.602;12.998;2023-08-01T05:09:22;6.15;;;3.40;;
30299;SDS011;17110;52.602;12.998;2023-08-01T05:11:48;6.00;;;3.58;;
30299;SDS011;17110;52.602;12.998;2023-08-01T05:14:13;8.68;;;4.07;;
30299;SDS011;17110;52.602;12.998;2023-08-01T05:16:39;3.72;;;3.38;;
30299;SDS011;17110;52.602;12.998;2023-08-01T05:19:06;4.88;;;3.25;;
30299;SDS011;17110;52.602;12.998;2023-08-01T05:21:31;3.78;;;3.03;;
30299;SDS011;17110;52.602;12.998;2023-08-01T05:23:57;4.68;;;3.50;;
30299;SDS011;17110;52.602;12.998;2023-08-01T05:26:23;7.47;;;3.15;;
30299;SDS011;17110;52.602;12.998;2023-08-01T05:28:49;4.38;;;3.30;;
30299;SDS011;17110;52.602;12.998;2023-08-01T05:31:15;5.28;;;3.30;;
30299;SDS011;17110;52.602;12.998;2023-08-01T05:33:40;4.55;;;2.88;;
30299;SDS011;17110;52.602;12.998;2023-08-01T05:36:07;3.58;;;2.95;;
30299;SDS011;17110;52.602;12.998;2023-08-01T05:38:33;4.40;;;3.00;;
30299;SDS011;17110;52.602;12.998;2023-08-01T05:40:58;6.03;;;3.40;;
30299;SDS011;17110;52.602;12.998;2023-08-01T05:43:24;4.45;;;3.40;;
30299;SDS011;17110;52.602;12.998;2023-08-01T05:45:50;3.75;;;3.03;;
30299;SDS011;17110;52.602;12.998;2023-08-01T05:48:15;4.85;;;3.28;;
30299;SDS011;17110;52.602;12.998;2023-08-01T05:50:41;4.45;;;3.10;;
30299;SDS011;17110;52.602;12.998;2023-08-01T05:53:08;3.38;;;2.63;;
30299;SDS011;17110;52.602;12.998;2023-08-01T05:55:34;3.50;;;3.03;;
30299;SDS011;17110;52.602;12.998;2023-08-01T05:57:59;6.65;;;2.92;;
30299;SDS011;17110;52.602;12.998;2023-08-01T06:00:25;4.60;;;2.83;;
30299;SDS011;17110;52.602;12.998;2023-08-01T06:02:51;3.90;;;3.20;;
30299;SDS011;17110;52.602;12.998;2023-08-01T06:05:16;3.63;;;3.25;;
30299;SDS011;17110;52.602;12.998;2023-08-01T06:07:42;6.68;;;2.90;;
30299;SDS011;17110;52.602;12.998;2023-08-01T06:10:09;4.15;;;2.75;;
30299;SDS011;17110;52.602;12.998;2023-08-01T06:12:35;4.50;;;3.25;;
30299;SDS011;17110;52.602;12.998;2023-08-01T06:15:01;4.05;;;2.90;;
30299;SDS011;17110;52.602;12.998;2023-08-01T06:17:26;3.35;;;3.00;;
30299;SDS011;17110;52.602;12.998;2023-08-01T06:19:52;3.50;;;3.08;;
30299;SDS011;17110;52.602;12.998;2023-08-01T06:22:17;7.57;;;3.30;;
30299;SDS011;17110;52.602;12.998;2023-08-01T06:24:43;5.63;;;3.20;;
30299;SDS011;17110;52.602;12.998;2023-08-01T06:27:10;5.63;;;3.10;;
30299;SDS011;17110;52.602;12.998;2023-08-01T06:29:36;3.38;;;3.08;;
30299;SDS011;17110;52.602;12.998;2023-08-01T06:32:01;4.95;;;3.10;;
30299;SDS011;17110;52.602;12.998;2023-08-01T06:34:27;3.58;;;2.92;;
30299;SDS011;17110;52.602;12.998;2023-08-01T06:36:53;4.25;;;3.20;;
30299;SDS011;17110;52.602;12.998;2023-08-01T06:39:18;4.20;;;3.15;;
30299;SDS011;17110;52.602;12.998;2023-08-01T06:41:44;5.38;;;3.28;;
30299;SDS011;17110;52.602;12.998;2023-08-01T06:44:11;4.45;;;3.22;;
30299;SDS011;17110;52.602;12.998;2023-08-01T06:46:36;6.95;;;3.10;;
30299;SDS011;17110;52.602;12.998;2023-08-01T06:49:02;4.90;;;3.22;;
30299;SDS011;17110;52.602;12.998;2023-08-01T06:51:28;7.25;;;3.20;;
30299;SDS011;17110;52.602;12.998;2023-08-01T06:53:53;5.07;;;3.38;;
30299;SDS011;17110;52.602;12.998;2023-08-01T06:56:19;3.55;;;2.90;;
30299;SDS011;17110;52.602;12.998;2023-08-01T06:58:45;4.28;;;3.28;;
30299;SDS011;17110;52.602;12.998;2023-08-01T07:01:12;5.72;;;3.50;;
30299;SDS011;17110;52.602;12.998;2023-08-01T07:03:37;4.30;;;3.28;;
30299;SDS011;17110;52.602;12.998;2023-08-01T07:06:03;5.68;;;2.90;;
30299;SDS011;17110;52.602;12.998;2023-08-01T07:08:28;3.42;;;3.00;;
30299;SDS011;17110;52.602;12.998;2023-08-01T07:10:54;4.38;;;3.15;;
30299;SDS011;17110;52.602;12.998;2023-08-01T07:13:20;4.35;;;3.00;;
30299;SDS011;17110;52.602;12.998;2023-08-01T07:15:45;4.07;;;2.47;;
30299;SDS011;17110;52.602;12.998;2023-08-01T07:18:12;3.35;;;2.95;;
30299;SDS011;17110;52.602;12.998;2023-08-01T07:20:38;4.53;;;2.72;;
30299;SDS011;17110;52.602;12.998;2023-08-01T07:23:03;3.03;;;2.67;;
30299;SDS011;17110;52.602;12.998;2023-08-01T07:25:29;3.38;;;2.72;;
30299;SDS011;17110;52.602;12.998;2023-08-01T07:27:55;3.75;;;3.00;;
30299;SDS011;17110;52.602;12.998;2023-08-01T07:30:20;4.78;;;2.55;;
30299;SDS011;17110;52.602;12.998;2023-08-01T07:32:46;3.38;;;2.63;;
30299;SDS011;17110;52.602;12.998;2023-08-01T07:35:13;4.53;;;2.72;;
30299;SDS011;17110;52.602;12.998;2023-08-01T07:37:39;3.35;;;2.78;;
30299;SDS011;17110;52.602;12.998;2023-08-01T07:40:04;3.38;;;2.40;;
30299;SDS011;17110;52.602;12.998;2023-08-01T07:42:31;3.88;;;2.60;;
30299;SDS011;17110;52.602;12.998;2023-08-01T07:44:56;3.83;;;2.38;;
30299;SDS011;17110;52.602;12.998;2023-08-01T07:47:22;4.45;;;2.58;;
30299;SDS011;17110;52.602;12.998;2023-08-01T07:49:48;3.08;;;2.45;;
30299;SDS011;17110;52.602;12.998;2023-08-01T07:52:15;4.10;;;2.70;;
30299;SDS011;17110;52.602;12.998;2023-08-01T07:54:41;4.45;;;2.70;;
30299;SDS011;17110;52.602;12.998;2023-08-01T07:57:07;3.42;;;2.53;;
30299;SDS011;17110;52.602;12.998;2023-08-01T07:59:32;3.80;;;2.40;;
30299;SDS011;17110;52.602;12.998;2023-08-01T08:01:58;4.45;;;2.35;;
30299;SDS011;17110;52.602;12.998;2023-08-01T08:04:24;4.45;;;2.83;;
30299;SDS011;17110;52.602;12.998;2023-08-01T08:06:50;3.92;;;2.53;;
30299;SDS011;17110;52.602;12.998;2023-08-01T08:09:16;3.13;;;2.38;;
30299;SDS011;17110;52.602;12.998;2023-08-01T08:11:42;3.95;;;2.60;;
30299;SDS011;17110;52.602;12.998;2023-08-01T08:14:08;3.08;;;2.70;;
30299;SDS011;17110;52.602;12.998;2023-08-01T08:16:33;2.92;;;2.70;;
30299;SDS011;17110;52.602;12.998;2023-08-01T08:18:59;6.47;;;3.00;;
30299;SDS011;17110;52.602;12.998;2023-08-01T08:21:25;3.00;;;2.72;;
30299;SDS011;17110;52.602;12.998;2023-08-01T08:23:50;4.38;;;2.70;;
30299;SDS011;17110;52.602;12.998;2023-08-01T08:26:17;3.55;;;2.83;;
30299;SDS011;17110;52.602;12.998;2023-08-01T08:28:43;2.65;;;2.45;;
30299;SDS011;17110;52.602;12.998;2023-08-01T08:31:09;5.07;;;2.22;;
30299;SDS011;17110;52.602;12.998;2023-08-01T08:33:34;2.42;;;2.22;;
30299;SDS011;17110;52.602;12.998;2023-08-01T08:36:00;2.97;;;2.25;;
30299;SDS011;17110;52.602;12.998;2023-08-01T08:38:26;4.22;;;2.72;;
30299;SDS011;17110;52.602;12.998;2023-08-01T08:40:54;2.75;;;2.22;;
30299;SDS011;17110;52.602;12.998;2023-08-01T08:43:32;4.60;;;2.50;;
30299;SDS011;17110;52.602;12.998;2023-08-01T08:45:59;3.45;;;2.60;;
30299;SDS011;17110;52.602;12.998;2023-08-01T08:48:26;4.32;;;2.42;;
30299;SDS011;17110;52.602;12.998;2023-08-01T08:50:54;3.38;;;2.30;;
30299;SDS011;17110;52.602;12.998;2023-08-01T08:53:21;4.20;;;2.30;;
30299;SDS011;17110;52.602;12.998;2023-08-01T08:55:48;5.10;;;2.00;;
30299;SDS011;17110;52.602;12.998;2023-08-01T08:58:13;3.25;;;2.00;;
30299;SDS011;17110;52.602;12.998;2023-08-01T09:00:42;1.90;;;1.75;;
30299;SDS011;17110;52.602;12.998;2023-08-01T09:03:08;2.63;;;2.03;;
30299;SDS011;17110;52.602;12.998;2023-08-01T09:05:34;2.95;;;1.65;;
30299;SDS011;17110;52.602;12.998;2023-08-01T09:08:06;2.55;;;2.13;;
30299;SDS011;17110;52.602;12.998;2023-08-01T09:10:37;2.88;;;1.77;;
30299;SDS011;17110;52.602;12.998;2023-08-01T09:13:02;4.07;;;1.40;;
30299;SDS011;17110;52.602;12.998;2023-08-01T09:15:28;3.28;;;1.30;;
30299;SDS011;17110;52.602;12.998;2023-08-01T09:17:55;4.57;;;1.48;;
30299;SDS011;17110;52.602;12.998;2023-08-01T09:20:21;2.42;;;1.35;;
30299;SDS011;17110;52.602;12.998;2023-08-01T09:22:46;1.95;;;1.40;;
30299;SDS011;17110;52.602;12.998;2023-08-01T09:25:12;3.25;;;1.80;;
30299;SDS011;17110;52.602;12.998;2023-08-01T09:27:38;4.90;;;1.80;;
30299;SDS011;17110;52.602;12.998;2023-08-01T09:30:05;1.70;;;1.60;;
30299;SDS011;17110;52.602;12.998;2023-08-01T09:32:32;1.50;;;1.40;;
30299;SDS011;17110;52.602;12.998;2023-08-01T09:34:59;3.97;;;1.70;;
30299;SDS011;17110;52.602;12.998;2023-08-01T09:37:25;2.95;;;1.38;;
30299;SDS011;17110;52.602;12.998;2023-08-01T09:39:52;1.85;;;1.25;;
30299;SDS011;17110;52.602;12.998;2023-08-01T09:42:19;3.45;;;1.48;;
30299;SDS011;17110;52.602;12.998;2023-08-01T09:44:45;1.63;;;1.13;;
30299;SDS011;17110;52.602;12.998;2023-08-01T09:47:10;2.30;;;1.05;;
30299;SDS011;17110;52.602;12.998;2023-08-01T09:49:36;3.30;;;1.00;;
30299;SDS011;17110;52.602;12.998;2023-08-01T09:52:14;2.15;;;1.20;;
30299;SDS011;17110;52.602;12.998;2023-08-01T09:54:39;1.52;;;1.10;;
30299;SDS011;17110;52.602;12.998;2023-08-01T09:57:05;1.40;;;1.30;;
30299;SDS011;17110;52.602;12.998;2023-08-01T09:59:32;3.95;;;1.65;;
30299;SDS011;17110;52.602;12.998;2023-08-01T10:01:58;4.63;;;1.42;;
30299;SDS011;17110;52.602;12.998;2023-08-01T10:04:26;3.60;;;1.60;;
30299;SDS011;17110;52.602;12.998;2023-08-01T10:06:54;4.80;;;2.00;;
30299;SDS011;17110;52.602;12.998;2023-08-01T10:09:25;3.03;;;1.50;;
30299;SDS011;17110;52.602;12.998;2023-08-01T10:11:50;1.67;;;1.30;;
30299;SDS011;17110;52.602;12.998;2023-08-01T10:16:45;2.17;;;1.80;;
30299;SDS011;17110;52.602;12.998;2023-08-01T10:19:12;3.17;;;1.65;;
30299;SDS011;17110;52.602;12.998;2023-08-01T10:21:38;2.53;;;1.58;;
30299;SDS011;17110;52.602;12.998;2023-08-01T10:24:06;2.88;;;1.70;;
30299;SDS011;17110;52.602;12.998;2023-08-01T10:26:33;2.80;;;1.73;;
30299;SDS011;17110;52.602;12.998;2023-08-01T10:29:00;3.13;;;2.47;;
30299;SDS011;17110;52.602;12.998;2023-08-01T10:31:26;5.80;;;2.88;;
30299;SDS011;17110;52.602;12.998;2023-08-01T10:33:51;4.00;;;2.70;;
30299;SDS011;17110;52.602;12.998;2023-08-01T10:36:18;5.63;;;2.95;;
30299;SDS011;17110;52.602;12.998;2023-08-01T10:38:45;4.00;;;3.30;;
30299;SDS011;17110;52.602;12.998;2023-08-01T10:41:18;6.38;;;3.45;;
30299;SDS011;17110;52.602;12.998;2023-08-01T10:43:46;5.85;;;3.40;;
30299;SDS011;17110;52.602;12.998;2023-08-01T10:46:12;7.50;;;3.40;;
30299;SDS011;17110;52.602;12.998;2023-08-01T10:48:47;3.80;;;3.15;;
30299;SDS011;17110;52.602;12.998;2023-08-01T10:51:13;5.57;;;3.50;;
30299;SDS011;17110;52.602;12.998;2023-08-01T10:53:39;7.75;;;4.07;;
30299;SDS011;17110;52.602;12.998;2023-08-01T10:56:04;8.35;;;3.38;;
30299;SDS011;17110;52.602;12.998;2023-08-01T10:58:30;6.97;;;3.20;;
30299;SDS011;17110;52.602;12.998;2023-08-01T11:01:00;4.93;;;3.58;;
30299;SDS011;17110;52.602;12.998;2023-08-01T11:03:33;8.90;;;3.50;;
30299;SDS011;17110;52.602;12.998;2023-08-01T11:05:59;5.63;;;3.47;;
30299;SDS011;17110;52.602;12.998;2023-08-01T11:08:33;7.20;;;3.63;;
30299;SDS011;17110;52.602;12.998;2023-08-01T11:10:59;4.65;;;3.75;;
30299;SDS011;17110;52.602;12.998;2023-08-01T11:13:25;5.25;;;3.63;;
30299;SDS011;17110;52.602;12.998;2023-08-01T11:15:51;5.60;;;3.70;;
30299;SDS011;17110;52.602;12.998;2023-08-01T11:18:18;7.88;;;4.32;;
30299;SDS011;17110;52.602;12.998;2023-08-01T11:20:43;6.45;;;3.88;;
30299;SDS011;17110;52.602;12.998;2023-08-01T11:23:09;5.35;;;3.90;;
30299;SDS011;17110;52.602;12.998;2023-08-01T11:25:35;7.03;;;4.25;;
30299;SDS011;17110;52.602;12.998;2023-08-01T11:28:03;6.00;;;4.35;;
30299;SDS011;17110;52.602;12.998;2023-08-01T11:30:31;6.35;;;5.07;;
30299;SDS011;17110;52.602;12.998;2023-08-01T11:32:57;6.38;;;4.63;;
30299;SDS011;17110;52.602;12.998;2023-08-01T11:35:24;6.35;;;4.60;;
30299;SDS011;17110;52.602;12.998;2023-08-01T11:37:50;7.22;;;4.45;;
30299;SDS011;17110;52.602;12.998;2023-08-01T11:40:17;6.22;;;4.85;;
30299;SDS011;17110;52.602;12.998;2023-08-01T11:42:42;7.53;;;4.57;;
30299;SDS011;17110;52.602;12.998;2023-08-01T11:45:08;4.78;;;4.15;;
30299;SDS011;17110;52.602;12.998;2023-08-01T11:47:35;7.72;;;4.85;;
30299;SDS011;17110;52.602;12.998;2023-08-01T11:50:00;10.50;;;6.18;;
30299;SDS011;17110;52.602;12.998;2023-08-01T11:52:28;6.60;;;4.38;;
30299;SDS011;17110;52.602;12.998;2023-08-01T11:54:54;6.20;;;4.72;;
30299;SDS011;17110;52.602;12.998;2023-08-01T11:57:20;6.70;;;4.70;;
30299;SDS011;17110;52.602;12.998;2023-08-01T11:59:46;6.72;;;5.13;;
30299;SDS011;17110;52.602;12.998;2023-08-01T12:02:19;6.93;;;5.40;;
30299;SDS011;17110;52.602;12.998;2023-08-01T12:04:46;7.50;;;5.45;;
30299;SDS011;17110;52.602;12.998;2023-08-01T12:07:12;5.88;;;4.95;;
30299;SDS011;17110;52.602;12.998;2023-08-01T12:09:39;7.53;;;4.68;;
30299;SDS011;17110;52.602;12.998;2023-08-01T12:12:05;6.22;;;4.50;;
30299;SDS011;17110;52.602;12.998;2023-08-01T12:14:31;8.30;;;4.68;;
30299;SDS011;17110;52.602;12.998;2023-08-01T12:16:57;5.22;;;4.18;;
30299;SDS011;17110;52.602;12.998;2023-08-01T12:19:22;6.07;;;4.68;;
30299;SDS011;17110;52.602;12.998;2023-08-01T12:21:48;6.18;;;4.43;;
30299;SDS011;17110;52.602;12.998;2023-08-01T12:24:14;9.30;;;4.50;;
30299;SDS011;17110;52.602;12.998;2023-08-01T12:26:41;4.85;;;4.05;;
30299;SDS011;17110;52.602;12.998;2023-08-01T12:29:07;6.43;;;3.85;;
30299;SDS011;17110;52.602;12.998;2023-08-01T12:31:32;5.90;;;4.30;;
30299;SDS011;17110;52.602;12.998;2023-08-01T12:33:58;8.63;;;4.90;;
30299;SDS011;17110;52.602;12.998;2023-08-01T12:36:24;5.60;;;4.15;;
30299;SDS011;17110;52.602;12.998;2023-08-01T12:38:49;5.97;;;4.05;;
30299;SDS011;17110;52.602;12.998;2023-08-01T12:41:15;6.68;;;4.20;;
30299;SDS011;17110;52.602;12.998;2023-08-01T12:43:42;7.65;;;4.47;;
30299;SDS011;17110;52.602;12.998;2023-08-01T12:46:08;6.15;;;3.75;;
30299;SDS011;17110;52.602;12.998;2023-08-01T12:48:33;7.35;;;3.95;;
30299;SDS011;17110;52.602;12.998;2023-08-01T12:50:59;7.50;;;4.00;;
30299;SDS011;17110;52.602;12.998;2023-08-01T12:53:25;5.47;;;3.53;;
30299;SDS011;17110;52.602;12.998;2023-08-01T12:55:55;6.32;;;3.55;;
30299;SDS011;17110;52.602;12.998;2023-08-01T12:58:21;8.70;;;3.80;;
30299;SDS011;17110;52.602;12.998;2023-08-01T13:00:48;5.75;;;4.22;;
30299;SDS011;17110;52.602;12.998;2023-08-01T13:03:14;4.60;;;3.78;;
30299;SDS011;17110;52.602;12.998;2023-08-01T13:05:40;7.28;;;3.58;;
30299;SDS011;17110;52.602;12.998;2023-08-01T13:08:07;4.93;;;3.20;;
30299;SDS011;17110;52.602;12.998;2023-08-01T13:10:33;7.18;;;3.42;;
30299;SDS011;17110;52.602;12.998;2023-08-01T13:13:00;5.68;;;3.40;;
30299;SDS011;17110;52.602;12.998;2023-08-01T13:15:27;9.98;;;3.50;;
30299;SDS011;17110;52.602;12.998;2023-08-01T13:17:55;7.05;;;3.53;;
30299;SDS011;17110;52.602;12.998;2023-08-01T13:20:21;5.00;;;2.90;;
30299;SDS011;17110;52.602;12.998;2023-08-01T13:22:48;10.68;;;4.28;;
30299;SDS011;17110;52.602;12.998;2023-08-01T13:25:14;5.55;;;3.25;;
30299;SDS011;17110;52.602;12.998;2023-08-01T13:27:40;8.10;;;3.13;;
30299;SDS011;17110;52.602;12.998;2023-08-01T13:30:06;6.38;;;3.70;;
30299;SDS011;17110;52.602;12.998;2023-08-01T13:32:33;5.05;;;3.45;;
30299;SDS011;17110;52.602;12.998;2023-08-01T13:35:00;6.68;;;4.03;;
30299;SDS011;17110;52.602;12.998;2023-08-01T13:37:25;5.05;;;3.45;;
30299;SDS011;17110;52.602;12.998;2023-08-01T13:39:51;7.00;;;3.80;;
30299;SDS011;17110;52.602;12.998;2023-08-01T13:42:17;4.35;;;3.35;;
30299;SDS011;17110;52.602;12.998;2023-08-01T13:44:43;5.35;;;3.75;;
30299;SDS011;17110;52.602;12.998;2023-08-01T13:47:09;7.30;;;3.90;;
30299;SDS011;17110;52.602;12.998;2023-08-01T13:49:35;6.82;;;3.40;;
30299;SDS011;17110;52.602;12.998;2023-08-01T13:52:02;7.18;;;3.90;;
30299;SDS011;17110;52.602;12.998;2023-08-01T13:54:28;4.82;;;3.45;;
30299;SDS011;17110;52.602;12.998;2023-08-01T13:56:54;7.20;;;3.80;;
30299;SDS011;17110;52.602;12.998;2023-08-01T13:59:20;7.88;;;3.85;;
30299;SDS011;17110;52.602;12.998;2023-08-01T14:01:46;6.60;;;3.80;;
30299;SDS011;17110;52.602;12.998;2023-08-01T14:04:11;7.22;;;3.33;;
30299;SDS011;17110;52.602;12.998;2023-08-01T14:06:37;6.82;;;3.90;;
30299;SDS011;17110;52.602;12.998;2023-08-01T14:09:06;6.95;;;3.20;;
30299;SDS011;17110;52.602;12.998;2023-08-01T14:11:31;5.25;;;3.60;;
30299;SDS011;17110;52.602;12.998;2023-08-01T14:13:57;9.88;;;4.40;;
30299;SDS011;17110;52.602;12.998;2023-08-01T14:16:22;4.22;;;3.40;;
30299;SDS011;17110;52.602;12.998;2023-08-01T14:18:48;4.75;;;3.25;;
30299;SDS011;17110;52.602;12.998;2023-08-01T14:21:14;4.30;;;2.97;;
30299;SDS011;17110;52.602;12.998;2023-08-01T14:23:39;3.67;;;2.67;;
30299;SDS011;17110;52.602;12.998;2023-08-01T14:26:06;4.00;;;2.95;;
30299;SDS011;17110;52.602;12.998;2023-08-01T14:28:32;4.20;;;2.45;;